DEMNG SBPA-SBGL
Flight info
| Callsign | DEMNG |
|---|---|
| Flight time | N/A |
| Altitude | 7000 |
| Route | ANLER DCT SULPI DCT EVPIB DCT FEITO DCT KOLBI |
| Aircraft | PA24/L-SDGRY/S |
Departure
| Time | 2026-04-30 10:41 |
|---|---|
| Airport | Porto Alegre-Salgado Filho International Airport (SBPA) |
Arrival
| Time | N/A |
|---|---|
| Airport | Rio Galeão – Tom Jobim International Airport (SBGL) |
| Time | Latitude | Longitude | Altitude | Speed | Heading |
|---|---|---|---|---|---|
| 2026-04-30 10:21 | -29.99677 | -51.17663 | 8 ft | 0 kts | 91° |
| 2026-04-30 10:38 | -29.99677 | -51.17662 | 8 ft | 0 kts | 91° |
| 2026-04-30 10:39 | -29.99677 | -51.17660 | 8 ft | 0 kts | 91° |
| 2026-04-30 10:39 | -29.99685 | -51.17652 | 8 ft | 5 kts | 185° |
| 2026-04-30 10:39 | -29.99690 | -51.17703 | 8 ft | 8 kts | 305° |
| 2026-04-30 10:39 | -29.99636 | -51.17714 | 8 ft | 9 kts | 4° |
| 2026-04-30 10:40 | -29.99574 | -51.17710 | 9 ft | 9 kts | 2° |
| 2026-04-30 10:40 | -29.99509 | -51.17708 | 10 ft | 9 kts | 2° |
| 2026-04-30 10:40 | -29.99451 | -51.17686 | 10 ft | 10 kts | 64° |
| 2026-04-30 10:40 | -29.99452 | -51.17498 | 8 ft | 54 kts | 93° |
| 2026-04-30 10:41 | -29.99466 | -51.16882 | 134 ft | 82 kts | 88° |
| 2026-04-30 10:41 | -29.99473 | -51.16202 | 398 ft | 86 kts | 89° |
| 2026-04-30 10:41 | -29.99457 | -51.15538 | 743 ft | 85 kts | 82° |
| 2026-04-30 10:41 | -29.99447 | -51.14819 | 1013 ft | 92 kts | 91° |
| 2026-04-30 10:42 | -29.99497 | -51.14053 | 1187 ft | 99 kts | 94° |
| 2026-04-30 10:42 | -29.99535 | -51.13286 | 1490 ft | 94 kts | 91° |
| 2026-04-30 10:42 | -29.99552 | -51.12496 | 1687 ft | 101 kts | 91° |
| 2026-04-30 10:42 | -29.99568 | -51.11719 | 1980 ft | 97 kts | 90° |
| 2026-04-30 10:43 | -29.99581 | -51.10917 | 2200 ft | 99 kts | 91° |
| 2026-04-30 10:43 | -29.99591 | -51.10140 | 2455 ft | 98 kts | 92° |
| 2026-04-30 10:43 | -29.99605 | -51.09351 | 2686 ft | 97 kts | 93° |
| 2026-04-30 10:43 | -29.99620 | -51.08587 | 2926 ft | 97 kts | 93° |
| 2026-04-30 10:44 | -29.99636 | -51.07806 | 3178 ft | 96 kts | 94° |
| 2026-04-30 10:44 | -29.99652 | -51.07030 | 3412 ft | 98 kts | 94° |
| 2026-04-30 10:44 | -29.99668 | -51.06251 | 3664 ft | 96 kts | 94° |
| 2026-04-30 10:44 | -29.99684 | -51.05470 | 3889 ft | 98 kts | 94° |
| 2026-04-30 10:45 | -29.99698 | -51.04688 | 4153 ft | 97 kts | 93° |
| 2026-04-30 10:45 | -29.99712 | -51.03901 | 4384 ft | 99 kts | 93° |
| 2026-04-30 10:45 | -29.99727 | -51.03113 | 4641 ft | 98 kts | 93° |
| 2026-04-30 10:45 | -29.99741 | -51.02317 | 4876 ft | 100 kts | 93° |
| 2026-04-30 10:46 | -29.99756 | -51.01522 | 5119 ft | 100 kts | 93° |
| 2026-04-30 10:46 | -29.99771 | -51.00712 | 5348 ft | 101 kts | 92° |
| 2026-04-30 10:46 | -29.99784 | -50.99903 | 5593 ft | 102 kts | 92° |
| 2026-04-30 10:46 | -29.99798 | -50.99077 | 5827 ft | 103 kts | 92° |
| 2026-04-30 10:47 | -29.99811 | -50.98249 | 6075 ft | 104 kts | 92° |
| 2026-04-30 10:47 | -29.99825 | -50.97410 | 6312 ft | 105 kts | 92° |
| 2026-04-30 10:47 | -29.99839 | -50.96564 | 6551 ft | 106 kts | 92° |
| 2026-04-30 10:47 | -29.99854 | -50.95704 | 6771 ft | 107 kts | 92° |
| 2026-04-30 10:48 | -29.99819 | -50.94841 | 6971 ft | 111 kts | 74° |
| 2026-04-30 10:48 | -29.99365 | -50.94075 | 7042 ft | 126 kts | 38° |
| 2026-04-30 10:48 | -29.98611 | -50.93432 | 7026 ft | 143 kts | 37° |
| 2026-04-30 10:48 | -29.97720 | -50.92834 | 7010 ft | 154 kts | 23° |
| 2026-04-30 10:49 | -29.96728 | -50.92317 | 7011 ft | 158 kts | 23° |
| 2026-04-30 10:49 | -29.95733 | -50.91751 | 7016 ft | 161 kts | 26° |
| 2026-04-30 10:49 | -29.94759 | -50.91128 | 7017 ft | 162 kts | 28° |
| 2026-04-30 10:49 | -29.93789 | -50.90452 | 7004 ft | 164 kts | 30° |
| 2026-04-30 10:50 | -29.92823 | -50.89743 | 7004 ft | 164 kts | 31° |
| 2026-04-30 10:50 | -29.91865 | -50.89019 | 7011 ft | 164 kts | 32° |
| 2026-04-30 10:50 | -29.90912 | -50.88289 | 7014 ft | 165 kts | 32° |
| 2026-04-30 10:50 | -29.89959 | -50.87557 | 7018 ft | 165 kts | 32° |
| 2026-04-30 10:51 | -29.88998 | -50.86818 | 7019 ft | 166 kts | 32° |
| 2026-04-30 10:51 | -29.88039 | -50.86079 | 7020 ft | 166 kts | 32° |
| 2026-04-30 10:51 | -29.87076 | -50.85340 | 7020 ft | 166 kts | 32° |
| 2026-04-30 10:51 | -29.86116 | -50.84602 | 7020 ft | 166 kts | 32° |
| 2026-04-30 10:52 | -29.85156 | -50.83862 | 7021 ft | 166 kts | 32° |
| 2026-04-30 10:52 | -29.84195 | -50.83124 | 7022 ft | 166 kts | 32° |
| 2026-04-30 10:52 | -29.83236 | -50.82387 | 7019 ft | 166 kts | 32° |
| 2026-04-30 10:52 | -29.82275 | -50.81650 | 7022 ft | 166 kts | 32° |
| 2026-04-30 10:53 | -29.81316 | -50.80913 | 7023 ft | 166 kts | 32° |
| 2026-04-30 10:53 | -29.80355 | -50.80174 | 7022 ft | 166 kts | 32° |
| 2026-04-30 10:53 | -29.79395 | -50.79438 | 7025 ft | 166 kts | 32° |
| 2026-04-30 10:53 | -29.78450 | -50.78708 | 7025 ft | 166 kts | 32° |
| 2026-04-30 10:54 | -29.77494 | -50.77963 | 7029 ft | 166 kts | 32° |
| 2026-04-30 10:54 | -29.76539 | -50.77224 | 7031 ft | 165 kts | 32° |
| 2026-04-30 10:54 | -29.75581 | -50.76486 | 7031 ft | 165 kts | 32° |
| 2026-04-30 10:54 | -29.74624 | -50.75748 | 7032 ft | 166 kts | 32° |
| 2026-04-30 10:55 | -29.73667 | -50.75007 | 7032 ft | 166 kts | 32° |
| 2026-04-30 10:55 | -29.72709 | -50.74265 | 7032 ft | 166 kts | 32° |
| 2026-04-30 10:55 | -29.71748 | -50.73523 | 7032 ft | 166 kts | 32° |
| 2026-04-30 10:55 | -29.70788 | -50.72783 | 7032 ft | 166 kts | 32° |
| 2026-04-30 10:56 | -29.69829 | -50.72043 | 7034 ft | 166 kts | 32° |
| 2026-04-30 10:56 | -29.68871 | -50.71302 | 7035 ft | 166 kts | 32° |
| 2026-04-30 10:56 | -29.67912 | -50.70561 | 7035 ft | 166 kts | 32° |
| 2026-04-30 10:56 | -29.66952 | -50.69825 | 7035 ft | 166 kts | 32° |
| 2026-04-30 10:57 | -29.65992 | -50.69083 | 7038 ft | 166 kts | 32° |
| 2026-04-30 10:57 | -29.65031 | -50.68340 | 7038 ft | 166 kts | 32° |
| 2026-04-30 10:57 | -29.64071 | -50.67598 | 7036 ft | 166 kts | 32° |
| 2026-04-30 10:57 | -29.63113 | -50.66858 | 7037 ft | 166 kts | 32° |
| 2026-04-30 10:58 | -29.62152 | -50.66122 | 7040 ft | 166 kts | 32° |
| 2026-04-30 10:58 | -29.61191 | -50.65384 | 7039 ft | 166 kts | 32° |
| 2026-04-30 10:58 | -29.60234 | -50.64643 | 7041 ft | 166 kts | 32° |
| 2026-04-30 10:58 | -29.59267 | -50.63904 | 7041 ft | 167 kts | 32° |
| 2026-04-30 10:59 | -29.58313 | -50.63173 | 7041 ft | 167 kts | 32° |
| 2026-04-30 10:59 | -29.57344 | -50.62424 | 7039 ft | 167 kts | 33° |
| 2026-04-30 10:59 | -29.56381 | -50.61679 | 7040 ft | 167 kts | 33° |
| 2026-04-30 10:59 | -29.55419 | -50.60928 | 7040 ft | 167 kts | 33° |
| 2026-04-30 11:00 | -29.54450 | -50.60191 | 7046 ft | 167 kts | 32° |
| 2026-04-30 11:00 | -29.53481 | -50.59448 | 7054 ft | 168 kts | 32° |
| 2026-04-30 11:00 | -29.52508 | -50.58706 | 7054 ft | 168 kts | 32° |
| 2026-04-30 11:00 | -29.51543 | -50.57959 | 7055 ft | 167 kts | 32° |
| 2026-04-30 11:01 | -29.50579 | -50.57210 | 7056 ft | 168 kts | 32° |
| 2026-04-30 11:01 | -29.49606 | -50.56468 | 7053 ft | 167 kts | 32° |
| 2026-04-30 11:01 | -29.48635 | -50.55727 | 7054 ft | 168 kts | 33° |
| 2026-04-30 11:01 | -29.47706 | -50.54923 | 7055 ft | 167 kts | 38° |
| 2026-04-30 11:02 | -29.46828 | -50.54049 | 7052 ft | 166 kts | 40° |
| 2026-04-30 11:02 | -29.45949 | -50.53176 | 7053 ft | 168 kts | 40° |
| 2026-04-30 11:02 | -29.45063 | -50.52296 | 7054 ft | 169 kts | 40° |
| 2026-04-30 11:02 | -29.44174 | -50.51413 | 7054 ft | 170 kts | 40° |
| 2026-04-30 11:03 | -29.43283 | -50.50530 | 7056 ft | 169 kts | 40° |
| 2026-04-30 11:03 | -29.42396 | -50.49656 | 7056 ft | 168 kts | 39° |
| 2026-04-30 11:03 | -29.41521 | -50.48792 | 7057 ft | 168 kts | 40° |
| 2026-04-30 11:04 | -29.39743 | -50.47015 | 7065 ft | 169 kts | 39° |
| 2026-04-30 11:04 | -29.38849 | -50.46138 | 7067 ft | 169 kts | 39° |
| 2026-04-30 11:04 | -29.37956 | -50.45258 | 7067 ft | 169 kts | 40° |
| 2026-04-30 11:04 | -29.37070 | -50.44371 | 7067 ft | 169 kts | 39° |
| 2026-04-30 11:05 | -29.36173 | -50.43490 | 7066 ft | 170 kts | 40° |
| 2026-04-30 11:05 | -29.35285 | -50.42606 | 7066 ft | 169 kts | 39° |
| 2026-04-30 11:05 | -29.34392 | -50.41738 | 7066 ft | 168 kts | 39° |
| 2026-04-30 11:05 | -29.33513 | -50.40861 | 7068 ft | 167 kts | 40° |
| 2026-04-30 11:06 | -29.32637 | -50.39982 | 7068 ft | 168 kts | 40° |
| 2026-04-30 11:06 | -29.31764 | -50.39103 | 7068 ft | 168 kts | 40° |
| 2026-04-30 11:06 | -29.30884 | -50.38235 | 7069 ft | 166 kts | 39° |
| 2026-04-30 11:06 | -29.30002 | -50.37375 | 7070 ft | 167 kts | 39° |
| 2026-04-30 11:07 | -29.29120 | -50.36509 | 7071 ft | 167 kts | 39° |
| 2026-04-30 11:07 | -29.28231 | -50.35646 | 7071 ft | 167 kts | 39° |
| 2026-04-30 11:07 | -29.27329 | -50.34803 | 7071 ft | 168 kts | 36° |
| 2026-04-30 11:07 | -29.26389 | -50.34005 | 7080 ft | 168 kts | 35° |
| 2026-04-30 11:08 | -29.25457 | -50.33232 | 7080 ft | 168 kts | 34° |
| 2026-04-30 11:08 | -29.24512 | -50.32448 | 7077 ft | 168 kts | 35° |
| 2026-04-30 11:08 | -29.23577 | -50.31650 | 7078 ft | 168 kts | 36° |
| 2026-04-30 11:08 | -29.22643 | -50.30850 | 7078 ft | 167 kts | 35° |
| 2026-04-30 11:09 | -29.21707 | -50.30052 | 7078 ft | 168 kts | 35° |
| 2026-04-30 11:09 | -29.20772 | -50.29259 | 7078 ft | 167 kts | 35° |
| 2026-04-30 11:09 | -29.19844 | -50.28456 | 7075 ft | 166 kts | 35° |
| 2026-04-30 11:09 | -29.18914 | -50.27670 | 7076 ft | 166 kts | 34° |
| 2026-04-30 11:10 | -29.17983 | -50.26882 | 7077 ft | 166 kts | 35° |
| 2026-04-30 11:10 | -29.17056 | -50.26089 | 7077 ft | 166 kts | 35° |
| 2026-04-30 11:10 | -29.16124 | -50.25305 | 7078 ft | 167 kts | 35° |
| 2026-04-30 11:10 | -29.15195 | -50.24511 | 7078 ft | 167 kts | 35° |
| 2026-04-30 11:11 | -29.14267 | -50.23715 | 7073 ft | 167 kts | 36° |
| 2026-04-30 11:11 | -29.13336 | -50.22920 | 7076 ft | 167 kts | 35° |
| 2026-04-30 11:11 | -29.12408 | -50.22124 | 7076 ft | 167 kts | 35° |
| 2026-04-30 11:11 | -29.11475 | -50.21333 | 7075 ft | 167 kts | 35° |
| 2026-04-30 11:12 | -29.10553 | -50.20550 | 7075 ft | 167 kts | 35° |
| 2026-04-30 11:12 | -29.09620 | -50.19758 | 7075 ft | 167 kts | 35° |
| 2026-04-30 11:12 | -29.08686 | -50.18961 | 7074 ft | 169 kts | 35° |
| 2026-04-30 11:12 | -29.07739 | -50.18143 | 7074 ft | 168 kts | 34° |
| 2026-04-30 11:13 | -29.06802 | -50.17335 | 7075 ft | 169 kts | 35° |
| 2026-04-30 11:13 | -29.05871 | -50.16549 | 7074 ft | 168 kts | 34° |
| 2026-04-30 11:13 | -29.04927 | -50.15746 | 7076 ft | 169 kts | 34° |
| 2026-04-30 11:13 | -29.03982 | -50.14945 | 7076 ft | 168 kts | 35° |
| 2026-04-30 11:14 | -29.03044 | -50.14153 | 7066 ft | 167 kts | 34° |
| 2026-04-30 11:14 | -29.02103 | -50.13358 | 7063 ft | 168 kts | 34° |
| 2026-04-30 11:14 | -29.01158 | -50.12562 | 7070 ft | 169 kts | 34° |
| 2026-04-30 11:14 | -29.00223 | -50.11761 | 7069 ft | 167 kts | 34° |
| 2026-04-30 11:15 | -28.99292 | -50.10960 | 7069 ft | 167 kts | 36° |
| 2026-04-30 11:15 | -28.98358 | -50.10165 | 7069 ft | 167 kts | 34° |
| 2026-04-30 11:15 | -28.97413 | -50.09376 | 7069 ft | 169 kts | 34° |
| 2026-04-30 11:15 | -28.96473 | -50.08569 | 7071 ft | 170 kts | 35° |
| 2026-04-30 11:16 | -28.95525 | -50.07772 | 7070 ft | 168 kts | 34° |
| 2026-04-30 11:16 | -28.94583 | -50.06977 | 7067 ft | 168 kts | 36° |
| 2026-04-30 11:16 | -28.93645 | -50.06176 | 7070 ft | 169 kts | 35° |
| 2026-04-30 11:16 | -28.92707 | -50.05362 | 7060 ft | 170 kts | 35° |
| 2026-04-30 11:17 | -28.91752 | -50.04570 | 7058 ft | 170 kts | 34° |
| 2026-04-30 11:17 | -28.90808 | -50.03777 | 7057 ft | 169 kts | 35° |
| 2026-04-30 11:17 | -28.89876 | -50.02966 | 7058 ft | 168 kts | 35° |
| 2026-04-30 11:17 | -28.88938 | -50.02178 | 7058 ft | 167 kts | 34° |
| 2026-04-30 11:18 | -28.87996 | -50.01396 | 7061 ft | 168 kts | 35° |
| 2026-04-30 11:18 | -28.86120 | -49.99810 | 7065 ft | 168 kts | 34° |
| 2026-04-30 11:18 | -28.85183 | -49.99022 | 7065 ft | 167 kts | 36° |
| 2026-04-30 11:19 | -28.84252 | -49.98218 | 7064 ft | 168 kts | 36° |
| 2026-04-30 11:19 | -28.83330 | -49.97430 | 7065 ft | 168 kts | 35° |
| 2026-04-30 11:19 | -28.82389 | -49.96633 | 7062 ft | 168 kts | 35° |
| 2026-04-30 11:19 | -28.81452 | -49.95838 | 7058 ft | 167 kts | 35° |
| 2026-04-30 11:20 | -28.80527 | -49.95055 | 7057 ft | 165 kts | 35° |
| 2026-04-30 11:20 | -28.79598 | -49.94270 | 7059 ft | 166 kts | 35° |
| 2026-04-30 11:20 | -28.78661 | -49.93482 | 7059 ft | 168 kts | 35° |
| 2026-04-30 11:20 | -28.77724 | -49.92688 | 7059 ft | 167 kts | 35° |
| 2026-04-30 11:21 | -28.76785 | -49.91900 | 7060 ft | 167 kts | 35° |
| 2026-04-30 11:21 | -28.75855 | -49.91116 | 7060 ft | 167 kts | 35° |
| 2026-04-30 11:21 | -28.74918 | -49.90321 | 7065 ft | 168 kts | 35° |
| 2026-04-30 11:21 | -28.73973 | -49.89525 | 7065 ft | 169 kts | 35° |
| 2026-04-30 11:22 | -28.73030 | -49.88725 | 7064 ft | 169 kts | 35° |
| 2026-04-30 11:22 | -28.72085 | -49.87923 | 7062 ft | 169 kts | 35° |
| 2026-04-30 11:22 | -28.71140 | -49.87132 | 7061 ft | 169 kts | 35° |
| 2026-04-30 11:22 | -28.70215 | -49.86355 | 7060 ft | 166 kts | 35° |
| 2026-04-30 11:23 | -28.69321 | -49.85510 | 7058 ft | 167 kts | 43° |
| 2026-04-30 11:23 | -28.68579 | -49.84490 | 7058 ft | 168 kts | 51° |
| 2026-04-30 11:23 | -28.67081 | -49.82463 | 7059 ft | 168 kts | 48° |
| 2026-04-30 11:24 | -28.66322 | -49.81453 | 7062 ft | 168 kts | 49° |
| 2026-04-30 11:24 | -28.65576 | -49.80428 | 7060 ft | 168 kts | 50° |
| 2026-04-30 11:24 | -28.64838 | -49.79397 | 7060 ft | 167 kts | 50° |
| 2026-04-30 11:25 | -28.63338 | -49.77363 | 7056 ft | 169 kts | 49° |
| 2026-04-30 11:25 | -28.62585 | -49.76327 | 7056 ft | 169 kts | 49° |
| 2026-04-30 11:25 | -28.61077 | -49.74288 | 7057 ft | 167 kts | 49° |
| 2026-04-30 11:26 | -28.59844 | -49.72605 | 7061 ft | 167 kts | 50° |
| 2026-04-30 11:26 | -28.59099 | -49.71588 | 7063 ft | 167 kts | 49° |
| 2026-04-30 11:26 | -28.58357 | -49.70572 | 7062 ft | 167 kts | 50° |
| 2026-04-30 11:27 | -28.57615 | -49.69555 | 7053 ft | 167 kts | 50° |
| 2026-04-30 11:27 | -28.56874 | -49.68543 | 7055 ft | 167 kts | 50° |
| 2026-04-30 11:27 | -28.56131 | -49.67524 | 7054 ft | 167 kts | 50° |
| 2026-04-30 11:27 | -28.55381 | -49.66511 | 7055 ft | 168 kts | 49° |
| 2026-04-30 11:28 | -28.53880 | -49.64478 | 7057 ft | 168 kts | 50° |
| 2026-04-30 11:28 | -28.53122 | -49.63459 | 7057 ft | 169 kts | 49° |
| 2026-04-30 11:28 | -28.52379 | -49.62421 | 7056 ft | 169 kts | 50° |
| 2026-04-30 11:29 | -28.51627 | -49.61392 | 7054 ft | 170 kts | 49° |
| 2026-04-30 11:29 | -28.50860 | -49.60383 | 7046 ft | 168 kts | 49° |
| 2026-04-30 11:29 | -28.49364 | -49.58348 | 7046 ft | 168 kts | 50° |
| 2026-04-30 11:30 | -28.47867 | -49.56314 | 7052 ft | 167 kts | 50° |
| 2026-04-30 11:30 | -28.47123 | -49.55297 | 7047 ft | 167 kts | 50° |
| 2026-04-30 11:30 | -28.46394 | -49.54268 | 7051 ft | 166 kts | 51° |
| 2026-04-30 11:31 | -28.45664 | -49.53241 | 7053 ft | 168 kts | 50° |
| 2026-04-30 11:31 | -28.44916 | -49.52249 | 7043 ft | 165 kts | 47° |
| 2026-04-30 11:31 | -28.44161 | -49.51271 | 7044 ft | 165 kts | 49° |
| 2026-04-30 11:31 | -28.43414 | -49.50280 | 7045 ft | 165 kts | 49° |
| 2026-04-30 11:32 | -28.42677 | -49.49285 | 7048 ft | 164 kts | 50° |
| 2026-04-30 11:32 | -28.41943 | -49.48290 | 7050 ft | 164 kts | 50° |
| 2026-04-30 11:32 | -28.41212 | -49.47294 | 7051 ft | 164 kts | 50° |
| 2026-04-30 11:33 | -28.39751 | -49.45300 | 7053 ft | 164 kts | 49° |
| 2026-04-30 11:33 | -28.39020 | -49.44302 | 7052 ft | 164 kts | 50° |
| 2026-04-30 11:33 | -28.38287 | -49.43301 | 7046 ft | 165 kts | 49° |
| 2026-04-30 11:33 | -28.37550 | -49.42306 | 7045 ft | 165 kts | 49° |
| 2026-04-30 11:34 | -28.36808 | -49.41317 | 7043 ft | 164 kts | 49° |
| 2026-04-30 11:34 | -28.36071 | -49.40325 | 7044 ft | 164 kts | 50° |
| 2026-04-30 11:34 | -28.35338 | -49.39333 | 7045 ft | 164 kts | 50° |
| 2026-04-30 11:34 | -28.34604 | -49.38334 | 7046 ft | 165 kts | 50° |
| 2026-04-30 11:35 | -28.33871 | -49.37336 | 7048 ft | 165 kts | 50° |
| 2026-04-30 11:35 | -28.33138 | -49.36335 | 7049 ft | 165 kts | 50° |
| 2026-04-30 11:35 | -28.32400 | -49.35339 | 7048 ft | 165 kts | 50° |
| 2026-04-30 11:35 | -28.31669 | -49.34336 | 7043 ft | 165 kts | 50° |
| 2026-04-30 11:36 | -28.30925 | -49.33347 | 7042 ft | 164 kts | 49° |
| 2026-04-30 11:36 | -28.30183 | -49.32359 | 7042 ft | 164 kts | 49° |
| 2026-04-30 11:36 | -28.29449 | -49.31365 | 7042 ft | 164 kts | 50° |
| 2026-04-30 11:36 | -28.28716 | -49.30370 | 7040 ft | 164 kts | 50° |
| 2026-04-30 11:37 | -28.27983 | -49.29376 | 7042 ft | 165 kts | 49° |
| 2026-04-30 11:37 | -28.27242 | -49.28387 | 7043 ft | 165 kts | 49° |
| 2026-04-30 11:37 | -28.26505 | -49.27391 | 7043 ft | 165 kts | 49° |
| 2026-04-30 11:37 | -28.25776 | -49.26407 | 7042 ft | 165 kts | 49° |
| 2026-04-30 11:38 | -28.25033 | -49.25412 | 7043 ft | 165 kts | 49° |
| 2026-04-30 11:38 | -28.24291 | -49.24416 | 7044 ft | 166 kts | 49° |
| 2026-04-30 11:38 | -28.23553 | -49.23416 | 7046 ft | 165 kts | 50° |
| 2026-04-30 11:38 | -28.22818 | -49.22415 | 7045 ft | 165 kts | 50° |
| 2026-04-30 11:39 | -28.22079 | -49.21417 | 7045 ft | 165 kts | 49° |
| 2026-04-30 11:39 | -28.21335 | -49.20421 | 7045 ft | 165 kts | 49° |
| 2026-04-30 11:39 | -28.20597 | -49.19427 | 7045 ft | 165 kts | 50° |
| 2026-04-30 11:39 | -28.19859 | -49.18431 | 7045 ft | 165 kts | 49° |
| 2026-04-30 11:40 | -28.19121 | -49.17440 | 7047 ft | 164 kts | 49° |
| 2026-04-30 11:40 | -28.18384 | -49.16451 | 7043 ft | 164 kts | 49° |
| 2026-04-30 11:40 | -28.17648 | -49.15457 | 7042 ft | 165 kts | 49° |
| 2026-04-30 11:40 | -28.16908 | -49.14463 | 7044 ft | 165 kts | 49° |
| 2026-04-30 11:41 | -28.16166 | -49.13470 | 7045 ft | 165 kts | 49° |
| 2026-04-30 11:41 | -28.15433 | -49.12492 | 7046 ft | 165 kts | 49° |
| 2026-04-30 11:41 | -28.14691 | -49.11497 | 7045 ft | 165 kts | 49° |
| 2026-04-30 11:41 | -28.13952 | -49.10504 | 7045 ft | 165 kts | 49° |
| 2026-04-30 11:42 | -28.13213 | -49.09510 | 7042 ft | 165 kts | 49° |
| 2026-04-30 11:42 | -28.12476 | -49.08514 | 7045 ft | 165 kts | 50° |
| 2026-04-30 11:42 | -28.11742 | -49.07505 | 7040 ft | 167 kts | 50° |
| 2026-04-30 11:42 | -28.10999 | -49.06484 | 7043 ft | 167 kts | 49° |
| 2026-04-30 11:43 | -28.10243 | -49.05484 | 7042 ft | 166 kts | 47° |
| 2026-04-30 11:43 | -28.09498 | -49.04496 | 7043 ft | 166 kts | 50° |
| 2026-04-30 11:43 | -28.08755 | -49.03496 | 7043 ft | 166 kts | 48° |
| 2026-04-30 11:43 | -28.07985 | -49.02502 | 7046 ft | 168 kts | 48° |
| 2026-04-30 11:44 | -28.07241 | -49.01491 | 7046 ft | 167 kts | 49° |
| 2026-04-30 11:44 | -28.06495 | -49.00481 | 7048 ft | 167 kts | 48° |
| 2026-04-30 11:44 | -28.05745 | -48.99480 | 7048 ft | 167 kts | 48° |
| 2026-04-30 11:44 | -28.04991 | -48.98479 | 7049 ft | 168 kts | 49° |
| 2026-04-30 11:45 | -28.04233 | -48.97463 | 7047 ft | 167 kts | 47° |
| 2026-04-30 11:45 | -28.03486 | -48.96460 | 7048 ft | 167 kts | 49° |
| 2026-04-30 11:45 | -28.02741 | -48.95468 | 7048 ft | 166 kts | 48° |
| 2026-04-30 11:45 | -28.01990 | -48.94468 | 7044 ft | 166 kts | 49° |
| 2026-04-30 11:46 | -28.01250 | -48.93458 | 7049 ft | 166 kts | 48° |
| 2026-04-30 11:46 | -28.00502 | -48.92459 | 7047 ft | 166 kts | 49° |
| 2026-04-30 11:46 | -27.99747 | -48.91465 | 7049 ft | 166 kts | 48° |
| 2026-04-30 11:46 | -27.99000 | -48.90470 | 7043 ft | 167 kts | 48° |
| 2026-04-30 11:47 | -27.98274 | -48.89452 | 7043 ft | 168 kts | 50° |
| 2026-04-30 11:47 | -27.97516 | -48.88439 | 7042 ft | 168 kts | 47° |
| 2026-04-30 11:47 | -27.96751 | -48.87444 | 7043 ft | 167 kts | 49° |
| 2026-04-30 11:47 | -27.96006 | -48.86436 | 7043 ft | 166 kts | 48° |
| 2026-04-30 11:48 | -27.95243 | -48.85449 | 7043 ft | 166 kts | 48° |
| 2026-04-30 11:48 | -27.94497 | -48.84461 | 7042 ft | 168 kts | 48° |
| 2026-04-30 11:48 | -27.93738 | -48.83460 | 7044 ft | 166 kts | 48° |
| 2026-04-30 11:48 | -27.92996 | -48.82457 | 7041 ft | 165 kts | 49° |
| 2026-04-30 11:49 | -27.92262 | -48.81459 | 7039 ft | 166 kts | 48° |
| 2026-04-30 11:49 | -27.91503 | -48.80481 | 7037 ft | 166 kts | 46° |
| 2026-04-30 11:49 | -27.90755 | -48.79483 | 7039 ft | 167 kts | 49° |
| 2026-04-30 11:49 | -27.90024 | -48.78476 | 7041 ft | 166 kts | 49° |
| 2026-04-30 11:50 | -27.89280 | -48.77481 | 7041 ft | 165 kts | 49° |
| 2026-04-30 11:50 | -27.88534 | -48.76479 | 7040 ft | 167 kts | 48° |
| 2026-04-30 11:50 | -27.87785 | -48.75479 | 7041 ft | 168 kts | 49° |
| 2026-04-30 11:50 | -27.87035 | -48.74473 | 7018 ft | 166 kts | 48° |
| 2026-04-30 11:51 | -27.86294 | -48.73477 | 7016 ft | 165 kts | 49° |
| 2026-04-30 11:51 | -27.85546 | -48.72493 | 7014 ft | 165 kts | 48° |
| 2026-04-30 11:51 | -27.84795 | -48.71502 | 7011 ft | 167 kts | 48° |
| 2026-04-30 11:51 | -27.84042 | -48.70496 | 7009 ft | 168 kts | 48° |
| 2026-04-30 11:52 | -27.83301 | -48.69494 | 7004 ft | 166 kts | 50° |
| 2026-04-30 11:52 | -27.82583 | -48.68477 | 7004 ft | 164 kts | 50° |
| 2026-04-30 11:52 | -27.81872 | -48.67467 | 7000 ft | 166 kts | 50° |
| 2026-04-30 11:52 | -27.81161 | -48.66444 | 6998 ft | 166 kts | 50° |
| 2026-04-30 11:53 | -27.80454 | -48.65434 | 6995 ft | 166 kts | 50° |
| 2026-04-30 11:53 | -27.79734 | -48.64423 | 6992 ft | 165 kts | 50° |
| 2026-04-30 11:53 | -27.79018 | -48.63412 | 6991 ft | 165 kts | 50° |
| 2026-04-30 11:53 | -27.78302 | -48.62396 | 6988 ft | 165 kts | 51° |
| 2026-04-30 11:54 | -27.77587 | -48.61379 | 6985 ft | 165 kts | 50° |
| 2026-04-30 11:54 | -27.76871 | -48.60368 | 6983 ft | 165 kts | 50° |
| 2026-04-30 11:54 | -27.76157 | -48.59356 | 6981 ft | 165 kts | 50° |
| 2026-04-30 11:54 | -27.75442 | -48.58349 | 6980 ft | 164 kts | 50° |
| 2026-04-30 11:55 | -27.74726 | -48.57340 | 6979 ft | 165 kts | 50° |
| 2026-04-30 11:55 | -27.74010 | -48.56329 | 6980 ft | 165 kts | 50° |
| 2026-04-30 11:55 | -27.73839 | -48.56088 | 6980 ft | 165 kts | 50° |
| 2026-04-30 11:55 | -27.73325 | -48.55364 | 6980 ft | 165 kts | 50° |
| 2026-04-30 11:56 | -27.72616 | -48.54367 | 6981 ft | 165 kts | 50° |
| 2026-04-30 11:56 | -27.71898 | -48.53352 | 6980 ft | 166 kts | 50° |
| 2026-04-30 11:56 | -27.71181 | -48.52334 | 6979 ft | 165 kts | 50° |
| 2026-04-30 11:56 | -27.70461 | -48.51323 | 6980 ft | 166 kts | 50° |
| 2026-04-30 11:57 | -27.69739 | -48.50308 | 6981 ft | 166 kts | 50° |
| 2026-04-30 11:57 | -27.69020 | -48.49292 | 6980 ft | 166 kts | 50° |
| 2026-04-30 11:57 | -27.68297 | -48.48276 | 6981 ft | 166 kts | 50° |
| 2026-04-30 11:57 | -27.67562 | -48.47266 | 6980 ft | 166 kts | 50° |
| 2026-04-30 11:58 | -27.66842 | -48.46251 | 6978 ft | 165 kts | 50° |
| 2026-04-30 11:58 | -27.66124 | -48.45238 | 6979 ft | 165 kts | 50° |
| 2026-04-30 11:58 | -27.65409 | -48.44225 | 6981 ft | 165 kts | 50° |
| 2026-04-30 11:58 | -27.64695 | -48.43207 | 6984 ft | 168 kts | 51° |
| 2026-04-30 11:59 | -27.63976 | -48.42161 | 6986 ft | 168 kts | 49° |
| 2026-04-30 11:59 | -27.63245 | -48.41142 | 6987 ft | 166 kts | 50° |
| 2026-04-30 11:59 | -27.62521 | -48.40133 | 6989 ft | 165 kts | 49° |
| 2026-04-30 11:59 | -27.61788 | -48.39130 | 6991 ft | 166 kts | 49° |
| 2026-04-30 12:00 | -27.61054 | -48.38122 | 6993 ft | 167 kts | 50° |
| 2026-04-30 12:00 | -27.60333 | -48.37104 | 6996 ft | 166 kts | 50° |
| 2026-04-30 12:00 | -27.59618 | -48.36084 | 6998 ft | 165 kts | 50° |
| 2026-04-30 12:00 | -27.58900 | -48.35076 | 7000 ft | 166 kts | 50° |
| 2026-04-30 12:01 | -27.58169 | -48.34073 | 7003 ft | 166 kts | 49° |
| 2026-04-30 12:01 | -27.57444 | -48.33062 | 7003 ft | 166 kts | 50° |
| 2026-04-30 12:01 | -27.56729 | -48.32044 | 7006 ft | 165 kts | 50° |
| 2026-04-30 12:01 | -27.56015 | -48.31032 | 7007 ft | 164 kts | 50° |
| 2026-04-30 12:02 | -27.55297 | -48.30020 | 7008 ft | 165 kts | 49° |
| 2026-04-30 12:02 | -27.54584 | -48.29019 | 7012 ft | 167 kts | 50° |
| 2026-04-30 12:02 | -27.53849 | -48.27992 | 7013 ft | 166 kts | 49° |
| 2026-04-30 12:02 | -27.53120 | -48.26986 | 7016 ft | 165 kts | 49° |
| 2026-04-30 12:03 | -27.52410 | -48.25988 | 7021 ft | 166 kts | 50° |
| 2026-04-30 12:03 | -27.50967 | -48.23952 | 7024 ft | 167 kts | 50° |
| 2026-04-30 12:03 | -27.50241 | -48.22941 | 7026 ft | 166 kts | 50° |
| 2026-04-30 12:04 | -27.49508 | -48.21943 | 7020 ft | 165 kts | 49° |
| 2026-04-30 12:04 | -27.48782 | -48.20926 | 7022 ft | 167 kts | 50° |
| 2026-04-30 12:04 | -27.48061 | -48.19896 | 7023 ft | 168 kts | 49° |
| 2026-04-30 12:04 | -27.47330 | -48.18873 | 7023 ft | 166 kts | 49° |
| 2026-04-30 12:05 | -27.46609 | -48.17847 | 7025 ft | 167 kts | 50° |
| 2026-04-30 12:05 | -27.45883 | -48.16834 | 7024 ft | 167 kts | 49° |
| 2026-04-30 12:05 | -27.45151 | -48.15821 | 7023 ft | 167 kts | 49° |
| 2026-04-30 12:05 | -27.44410 | -48.14799 | 7024 ft | 168 kts | 49° |
| 2026-04-30 12:06 | -27.43675 | -48.13782 | 7022 ft | 168 kts | 49° |
| 2026-04-30 12:06 | -27.42948 | -48.12762 | 7023 ft | 166 kts | 49° |
| 2026-04-30 12:06 | -27.42216 | -48.11750 | 7024 ft | 167 kts | 50° |
| 2026-04-30 12:06 | -27.41501 | -48.10720 | 7023 ft | 168 kts | 49° |
| 2026-04-30 12:07 | -27.40760 | -48.09700 | 7022 ft | 167 kts | 48° |
| 2026-04-30 12:07 | -27.40021 | -48.08687 | 7021 ft | 167 kts | 48° |
| 2026-04-30 12:07 | -27.39281 | -48.07689 | 7021 ft | 166 kts | 50° |
| 2026-04-30 12:07 | -27.38558 | -48.06664 | 7021 ft | 168 kts | 49° |
| 2026-04-30 12:08 | -27.37829 | -48.05632 | 7022 ft | 168 kts | 50° |
| 2026-04-30 12:08 | -27.37104 | -48.04604 | 7023 ft | 168 kts | 50° |
| 2026-04-30 12:08 | -27.36375 | -48.03587 | 7023 ft | 166 kts | 49° |
| 2026-04-30 12:08 | -27.35641 | -48.02583 | 7023 ft | 167 kts | 49° |
| 2026-04-30 12:09 | -27.34904 | -48.01571 | 7024 ft | 169 kts | 49° |
| 2026-04-30 12:09 | -27.34173 | -48.00539 | 7023 ft | 168 kts | 49° |
| 2026-04-30 12:09 | -27.33438 | -47.99512 | 7023 ft | 167 kts | 48° |
| 2026-04-30 12:09 | -27.32696 | -47.98500 | 7024 ft | 167 kts | 49° |
| 2026-04-30 12:10 | -27.31984 | -47.97483 | 7022 ft | 168 kts | 49° |
| 2026-04-30 12:10 | -27.31249 | -47.96445 | 7021 ft | 171 kts | 49° |
| 2026-04-30 12:10 | -27.30507 | -47.95419 | 7021 ft | 170 kts | 48° |
| 2026-04-30 12:10 | -27.29742 | -47.94417 | 7021 ft | 167 kts | 47° |
| 2026-04-30 12:11 | -27.29007 | -47.93397 | 7023 ft | 170 kts | 50° |
| 2026-04-30 12:11 | -27.28282 | -47.92353 | 7021 ft | 169 kts | 50° |
| 2026-04-30 12:11 | -27.27555 | -47.91307 | 7020 ft | 169 kts | 49° |
| 2026-04-30 12:11 | -27.26809 | -47.90285 | 7021 ft | 169 kts | 48° |
| 2026-04-30 12:12 | -27.26071 | -47.89271 | 7019 ft | 167 kts | 49° |
| 2026-04-30 12:12 | -27.25347 | -47.88241 | 7018 ft | 167 kts | 50° |
| 2026-04-30 12:12 | -27.24614 | -47.87209 | 7017 ft | 169 kts | 48° |
| 2026-04-30 12:12 | -27.23871 | -47.86196 | 7018 ft | 168 kts | 49° |
| 2026-04-30 12:13 | -27.23143 | -47.85183 | 7019 ft | 166 kts | 49° |
| 2026-04-30 12:13 | -27.22655 | -47.84517 | 7018 ft | 167 kts | 48° |
| 2026-04-30 12:13 | -27.21905 | -47.83519 | 7018 ft | 167 kts | 47° |
| 2026-04-30 12:13 | -27.20922 | -47.82162 | 7018 ft | 168 kts | 49° |
| 2026-04-30 12:14 | -27.20182 | -47.81142 | 7019 ft | 168 kts | 48° |
| 2026-04-30 12:14 | -27.19454 | -47.80131 | 7021 ft | 168 kts | 49° |
| 2026-04-30 12:14 | -27.18962 | -47.79428 | 7021 ft | 169 kts | 49° |
| 2026-04-30 12:14 | -27.18229 | -47.78411 | 7021 ft | 169 kts | 48° |
| 2026-04-30 12:15 | -27.17492 | -47.77373 | 7017 ft | 169 kts | 49° |
| 2026-04-30 12:15 | -27.16759 | -47.76333 | 7016 ft | 169 kts | 48° |
| 2026-04-30 12:15 | -27.16015 | -47.75317 | 7021 ft | 169 kts | 48° |
| 2026-04-30 12:15 | -27.15272 | -47.74296 | 7022 ft | 169 kts | 48° |
| 2026-04-30 12:16 | -27.14537 | -47.73253 | 7016 ft | 170 kts | 47° |
| 2026-04-30 12:16 | -27.13791 | -47.72230 | 7022 ft | 170 kts | 48° |
| 2026-04-30 12:16 | -27.13048 | -47.71207 | 7019 ft | 169 kts | 47° |
| 2026-04-30 12:16 | -27.12302 | -47.70190 | 7019 ft | 169 kts | 47° |
| 2026-04-30 12:17 | -27.10799 | -47.68145 | 7019 ft | 169 kts | 47° |
| 2026-04-30 12:17 | -27.10060 | -47.67114 | 7020 ft | 168 kts | 49° |
| 2026-04-30 12:17 | -27.09324 | -47.66091 | 7011 ft | 169 kts | 47° |
| 2026-04-30 12:18 | -27.08581 | -47.65066 | 7019 ft | 170 kts | 48° |
| 2026-04-30 12:18 | -27.07850 | -47.64028 | 7019 ft | 170 kts | 47° |
| 2026-04-30 12:18 | -27.07102 | -47.63006 | 7019 ft | 170 kts | 47° |
| 2026-04-30 12:18 | -27.06358 | -47.61990 | 7011 ft | 167 kts | 47° |
| 2026-04-30 12:19 | -27.05624 | -47.60986 | 7017 ft | 169 kts | 47° |
| 2026-04-30 12:19 | -27.04881 | -47.59960 | 7017 ft | 170 kts | 47° |
| 2026-04-30 12:19 | -27.04135 | -47.58934 | 7016 ft | 169 kts | 46° |
| 2026-04-30 12:19 | -27.03378 | -47.57918 | 7009 ft | 170 kts | 47° |
| 2026-04-30 12:20 | -27.02629 | -47.56894 | 7012 ft | 170 kts | 47° |
| 2026-04-30 12:20 | -27.01890 | -47.55863 | 7016 ft | 170 kts | 48° |
| 2026-04-30 12:20 | -27.01147 | -47.54823 | 7017 ft | 171 kts | 47° |
| 2026-04-30 12:20 | -27.00400 | -47.53794 | 7016 ft | 170 kts | 47° |
| 2026-04-30 12:21 | -26.99654 | -47.52768 | 7014 ft | 170 kts | 47° |
| 2026-04-30 12:21 | -26.98907 | -47.51739 | 7016 ft | 170 kts | 47° |
| 2026-04-30 12:21 | -26.98163 | -47.50709 | 7010 ft | 170 kts | 47° |
| 2026-04-30 12:21 | -26.97418 | -47.49682 | 7011 ft | 169 kts | 47° |
| 2026-04-30 12:22 | -26.96675 | -47.48658 | 7015 ft | 169 kts | 47° |
| 2026-04-30 12:22 | -26.95930 | -47.47641 | 7016 ft | 169 kts | 47° |
| 2026-04-30 12:22 | -26.95188 | -47.46619 | 7016 ft | 169 kts | 47° |
| 2026-04-30 12:22 | -26.94443 | -47.45592 | 7012 ft | 170 kts | 47° |
| 2026-04-30 12:23 | -26.93689 | -47.44570 | 7010 ft | 170 kts | 47° |
| 2026-04-30 12:23 | -26.92951 | -47.43554 | 7016 ft | 170 kts | 47° |
| 2026-04-30 12:23 | -26.92205 | -47.42531 | 7017 ft | 169 kts | 47° |
| 2026-04-30 12:23 | -26.91462 | -47.41501 | 7016 ft | 171 kts | 47° |
| 2026-04-30 12:24 | -26.90713 | -47.40468 | 7016 ft | 170 kts | 47° |
| 2026-04-30 12:24 | -26.89964 | -47.39449 | 7016 ft | 169 kts | 47° |
| 2026-04-30 12:24 | -26.89218 | -47.38431 | 7009 ft | 170 kts | 47° |
| 2026-04-30 12:24 | -26.88475 | -47.37406 | 7016 ft | 170 kts | 47° |
| 2026-04-30 12:25 | -26.87732 | -47.36379 | 7015 ft | 170 kts | 47° |
| 2026-04-30 12:25 | -26.86984 | -47.35353 | 7016 ft | 170 kts | 47° |
| 2026-04-30 12:25 | -26.86235 | -47.34330 | 7013 ft | 170 kts | 47° |
| 2026-04-30 12:25 | -26.85486 | -47.33306 | 7017 ft | 170 kts | 47° |
| 2026-04-30 12:26 | -26.84739 | -47.32275 | 7019 ft | 171 kts | 47° |
| 2026-04-30 12:26 | -26.83984 | -47.31244 | 7017 ft | 171 kts | 47° |
| 2026-04-30 12:26 | -26.83230 | -47.30220 | 7014 ft | 170 kts | 47° |
| 2026-04-30 12:26 | -26.82478 | -47.29197 | 7009 ft | 171 kts | 47° |
| 2026-04-30 12:27 | -26.81725 | -47.28167 | 7007 ft | 170 kts | 47° |
| 2026-04-30 12:27 | -26.80979 | -47.27133 | 7016 ft | 170 kts | 47° |
| 2026-04-30 12:27 | -26.80232 | -47.26102 | 7016 ft | 170 kts | 47° |
| 2026-04-30 12:27 | -26.79481 | -47.25084 | 7016 ft | 170 kts | 47° |
| 2026-04-30 12:28 | -26.78735 | -47.24059 | 7018 ft | 170 kts | 47° |
| 2026-04-30 12:28 | -26.77985 | -47.23034 | 7017 ft | 170 kts | 47° |
| 2026-04-30 12:28 | -26.77241 | -47.22022 | 7014 ft | 170 kts | 47° |
| 2026-04-30 12:28 | -26.76488 | -47.20999 | 7014 ft | 170 kts | 47° |
| 2026-04-30 12:29 | -26.75731 | -47.19958 | 7015 ft | 170 kts | 47° |
| 2026-04-30 12:29 | -26.74979 | -47.18935 | 7016 ft | 171 kts | 47° |
| 2026-04-30 12:29 | -26.74232 | -47.17906 | 7016 ft | 170 kts | 47° |
| 2026-04-30 12:29 | -26.73475 | -47.16880 | 7016 ft | 172 kts | 47° |
| 2026-04-30 12:30 | -26.72728 | -47.15859 | 7015 ft | 172 kts | 47° |
| 2026-04-30 12:30 | -26.71976 | -47.14826 | 7008 ft | 171 kts | 47° |
| 2026-04-30 12:30 | -26.71220 | -47.13793 | 7013 ft | 172 kts | 47° |
| 2026-04-30 12:30 | -26.70459 | -47.12753 | 7014 ft | 172 kts | 47° |
| 2026-04-30 12:31 | -26.69702 | -47.11714 | 7008 ft | 172 kts | 46° |
| 2026-04-30 12:31 | -26.68942 | -47.10683 | 7008 ft | 172 kts | 46° |
| 2026-04-30 12:31 | -26.68182 | -47.09654 | 7014 ft | 172 kts | 47° |
| 2026-04-30 12:31 | -26.67424 | -47.08625 | 7014 ft | 171 kts | 47° |
| 2026-04-30 12:32 | -26.66667 | -47.07597 | 7012 ft | 171 kts | 47° |
| 2026-04-30 12:32 | -26.65912 | -47.06566 | 7013 ft | 171 kts | 47° |
| 2026-04-30 12:32 | -26.65157 | -47.05535 | 7014 ft | 171 kts | 47° |
| 2026-04-30 12:32 | -26.64404 | -47.04509 | 7009 ft | 171 kts | 47° |
| 2026-04-30 12:33 | -26.63648 | -47.03479 | 7016 ft | 171 kts | 47° |
| 2026-04-30 12:33 | -26.62887 | -47.02447 | 7014 ft | 172 kts | 47° |
| 2026-04-30 12:33 | -26.62127 | -47.01418 | 7014 ft | 171 kts | 47° |
| 2026-04-30 12:33 | -26.61373 | -47.00389 | 7014 ft | 171 kts | 47° |
| 2026-04-30 12:34 | -26.60620 | -46.99359 | 7013 ft | 171 kts | 47° |
| 2026-04-30 12:34 | -26.59865 | -46.98329 | 7009 ft | 171 kts | 46° |
| 2026-04-30 12:34 | -26.59077 | -46.97332 | 7005 ft | 171 kts | 43° |
| 2026-04-30 12:34 | -26.58257 | -46.96370 | 7008 ft | 171 kts | 42° |
| 2026-04-30 12:35 | -26.57432 | -46.95419 | 7008 ft | 170 kts | 41° |
| 2026-04-30 12:35 | -26.56606 | -46.94472 | 7014 ft | 170 kts | 41° |
| 2026-04-30 12:35 | -26.55780 | -46.93525 | 7004 ft | 170 kts | 41° |
| 2026-04-30 12:35 | -26.54967 | -46.92588 | 7015 ft | 170 kts | 42° |
| 2026-04-30 12:36 | -26.54149 | -46.91631 | 7015 ft | 170 kts | 42° |
| 2026-04-30 12:36 | -26.53330 | -46.90675 | 7009 ft | 170 kts | 42° |
| 2026-04-30 12:36 | -26.52510 | -46.89715 | 7017 ft | 171 kts | 42° |
| 2026-04-30 12:36 | -26.51690 | -46.88753 | 7009 ft | 171 kts | 42° |
| 2026-04-30 12:37 | -26.50868 | -46.87792 | 7015 ft | 171 kts | 42° |
| 2026-04-30 12:37 | -26.50049 | -46.86826 | 7011 ft | 171 kts | 42° |
| 2026-04-30 12:37 | -26.49229 | -46.85861 | 7012 ft | 172 kts | 42° |
| 2026-04-30 12:37 | -26.48405 | -46.84895 | 7015 ft | 172 kts | 42° |
| 2026-04-30 12:38 | -26.47583 | -46.83930 | 7017 ft | 171 kts | 42° |
| 2026-04-30 12:38 | -26.46760 | -46.82968 | 7017 ft | 171 kts | 42° |
| 2026-04-30 12:38 | -26.45938 | -46.82004 | 7014 ft | 171 kts | 42° |
| 2026-04-30 12:38 | -26.45116 | -46.81042 | 7018 ft | 171 kts | 42° |
| 2026-04-30 12:39 | -26.44294 | -46.80079 | 7013 ft | 171 kts | 42° |
| 2026-04-30 12:39 | -26.43473 | -46.79120 | 7013 ft | 171 kts | 42° |
| 2026-04-30 12:39 | -26.42654 | -46.78160 | 7015 ft | 171 kts | 42° |
| 2026-04-30 12:39 | -26.41834 | -46.77195 | 7014 ft | 171 kts | 42° |
| 2026-04-30 12:40 | -26.41014 | -46.76232 | 7017 ft | 171 kts | 42° |
| 2026-04-30 12:40 | -26.40194 | -46.75274 | 7015 ft | 171 kts | 42° |
| 2026-04-30 12:40 | -26.39373 | -46.74310 | 7017 ft | 171 kts | 42° |
| 2026-04-30 12:40 | -26.38548 | -46.73347 | 7017 ft | 172 kts | 42° |
| 2026-04-30 12:41 | -26.37731 | -46.72385 | 7015 ft | 171 kts | 43° |
| 2026-04-30 12:41 | -26.36913 | -46.71423 | 7014 ft | 171 kts | 42° |
| 2026-04-30 12:41 | -26.36096 | -46.70464 | 7014 ft | 170 kts | 42° |
| 2026-04-30 12:41 | -26.35277 | -46.69507 | 7014 ft | 171 kts | 42° |
| 2026-04-30 12:42 | -26.34458 | -46.68554 | 7017 ft | 170 kts | 42° |
| 2026-04-30 12:42 | -26.33643 | -46.67598 | 7012 ft | 170 kts | 42° |
| 2026-04-30 12:42 | -26.32826 | -46.66640 | 7017 ft | 171 kts | 42° |
| 2026-04-30 12:42 | -26.32004 | -46.65683 | 7017 ft | 171 kts | 42° |
| 2026-04-30 12:43 | -26.31186 | -46.64729 | 7017 ft | 170 kts | 42° |
| 2026-04-30 12:43 | -26.30373 | -46.63781 | 7009 ft | 169 kts | 42° |
| 2026-04-30 12:43 | -26.29560 | -46.62828 | 7017 ft | 169 kts | 42° |
| 2026-04-30 12:43 | -26.28756 | -46.61893 | 7017 ft | 169 kts | 42° |
| 2026-04-30 12:44 | -26.27943 | -46.60941 | 7016 ft | 170 kts | 42° |
| 2026-04-30 12:44 | -26.27125 | -46.59990 | 7017 ft | 170 kts | 42° |
| 2026-04-30 12:44 | -26.26308 | -46.59037 | 7017 ft | 170 kts | 42° |
| 2026-04-30 12:44 | -26.25494 | -46.58082 | 7017 ft | 170 kts | 42° |
| 2026-04-30 12:45 | -26.24678 | -46.57127 | 7014 ft | 170 kts | 42° |
| 2026-04-30 12:45 | -26.23862 | -46.56179 | 7016 ft | 168 kts | 42° |
| 2026-04-30 12:45 | -26.23052 | -46.55237 | 7014 ft | 168 kts | 42° |
| 2026-04-30 12:45 | -26.22243 | -46.54294 | 7017 ft | 168 kts | 42° |
| 2026-04-30 12:46 | -26.21434 | -46.53353 | 7016 ft | 169 kts | 42° |
| 2026-04-30 12:46 | -26.20622 | -46.52411 | 7016 ft | 169 kts | 42° |
| 2026-04-30 12:46 | -26.19813 | -46.51465 | 7016 ft | 168 kts | 42° |
| 2026-04-30 12:46 | -26.19005 | -46.50519 | 7016 ft | 169 kts | 42° |
| 2026-04-30 12:47 | -26.18195 | -46.49572 | 7018 ft | 169 kts | 42° |
| 2026-04-30 12:47 | -26.17383 | -46.48629 | 7014 ft | 168 kts | 42° |
| 2026-04-30 12:47 | -26.16574 | -46.47687 | 7005 ft | 169 kts | 42° |
| 2026-04-30 12:47 | -26.15760 | -46.46742 | 7015 ft | 169 kts | 42° |
| 2026-04-30 12:48 | -26.14943 | -46.45795 | 7018 ft | 169 kts | 42° |
| 2026-04-30 12:48 | -26.14127 | -46.44846 | 7019 ft | 170 kts | 42° |
| 2026-04-30 12:48 | -26.13313 | -46.43896 | 7018 ft | 169 kts | 42° |
| 2026-04-30 12:48 | -26.12497 | -46.42949 | 7019 ft | 170 kts | 42° |
| 2026-04-30 12:49 | -26.11691 | -46.42013 | 7006 ft | 170 kts | 43° |
| 2026-04-30 12:49 | -26.10878 | -46.41065 | 7016 ft | 170 kts | 42° |
| 2026-04-30 12:49 | -26.10061 | -46.40117 | 7015 ft | 170 kts | 42° |
| 2026-04-30 12:49 | -26.09246 | -46.39172 | 7016 ft | 169 kts | 42° |
| 2026-04-30 12:50 | -26.08435 | -46.38224 | 7017 ft | 169 kts | 43° |
| 2026-04-30 12:50 | -26.07624 | -46.37274 | 7019 ft | 169 kts | 42° |
| 2026-04-30 12:50 | -26.06804 | -46.36330 | 7016 ft | 170 kts | 42° |
| 2026-04-30 12:50 | -26.05981 | -46.35383 | 7018 ft | 170 kts | 42° |
| 2026-04-30 12:51 | -26.05163 | -46.34432 | 7015 ft | 170 kts | 43° |
| 2026-04-30 12:51 | -26.04344 | -46.33480 | 7015 ft | 170 kts | 43° |
| 2026-04-30 12:51 | -26.03527 | -46.32531 | 7012 ft | 170 kts | 43° |
| 2026-04-30 12:51 | -26.02711 | -46.31583 | 7012 ft | 170 kts | 43° |
| 2026-04-30 12:52 | -26.01895 | -46.30633 | 7016 ft | 170 kts | 42° |
| 2026-04-30 12:52 | -26.01078 | -46.29689 | 7016 ft | 169 kts | 42° |
| 2026-04-30 12:52 | -26.00263 | -46.28744 | 7015 ft | 169 kts | 43° |
| 2026-04-30 12:52 | -25.99449 | -46.27802 | 7015 ft | 169 kts | 43° |
| 2026-04-30 12:53 | -25.98636 | -46.26859 | 7014 ft | 169 kts | 43° |
| 2026-04-30 12:53 | -25.97822 | -46.25913 | 7015 ft | 169 kts | 42° |
| 2026-04-30 12:53 | -25.97006 | -46.24969 | 7015 ft | 169 kts | 42° |
| 2026-04-30 12:53 | -25.96192 | -46.24029 | 7015 ft | 169 kts | 42° |
| 2026-04-30 12:54 | -25.95377 | -46.23084 | 7016 ft | 169 kts | 43° |
| 2026-04-30 12:54 | -25.94563 | -46.22141 | 7015 ft | 169 kts | 42° |
| 2026-04-30 12:54 | -25.93746 | -46.21198 | 7015 ft | 170 kts | 42° |
| 2026-04-30 12:54 | -25.92928 | -46.20255 | 7015 ft | 169 kts | 43° |
| 2026-04-30 12:55 | -25.92114 | -46.19309 | 7015 ft | 169 kts | 43° |
| 2026-04-30 12:55 | -25.91298 | -46.18363 | 7015 ft | 170 kts | 42° |
| 2026-04-30 12:55 | -25.90480 | -46.17419 | 7015 ft | 169 kts | 42° |
| 2026-04-30 12:55 | -25.89675 | -46.16489 | 7013 ft | 170 kts | 42° |
| 2026-04-30 12:56 | -25.88858 | -46.15539 | 7015 ft | 170 kts | 42° |
| 2026-04-30 12:56 | -25.88040 | -46.14592 | 7015 ft | 170 kts | 42° |
| 2026-04-30 12:56 | -25.87216 | -46.13644 | 7015 ft | 171 kts | 42° |
| 2026-04-30 12:56 | -25.86394 | -46.12696 | 7015 ft | 170 kts | 42° |
| 2026-04-30 12:57 | -25.85573 | -46.11749 | 7015 ft | 170 kts | 42° |
| 2026-04-30 12:57 | -25.84753 | -46.10802 | 7015 ft | 170 kts | 42° |
| 2026-04-30 12:57 | -25.83929 | -46.09855 | 7015 ft | 171 kts | 42° |
| 2026-04-30 12:57 | -25.83108 | -46.08907 | 7016 ft | 171 kts | 42° |
| 2026-04-30 12:58 | -25.82282 | -46.07954 | 7015 ft | 171 kts | 42° |
| 2026-04-30 12:58 | -25.81459 | -46.07007 | 7014 ft | 168 kts | 42° |
| 2026-04-30 12:58 | -25.80696 | -46.06128 | 6985 ft | 158 kts | 42° |
| 2026-04-30 12:58 | -25.79924 | -46.05237 | 7012 ft | 162 kts | 42° |
| 2026-04-30 12:59 | -25.79139 | -46.04327 | 7028 ft | 164 kts | 42° |
| 2026-04-30 12:59 | -25.78342 | -46.03407 | 7026 ft | 167 kts | 42° |
| 2026-04-30 12:59 | -25.77533 | -46.02476 | 7022 ft | 169 kts | 42° |
| 2026-04-30 12:59 | -25.76715 | -46.01535 | 7019 ft | 170 kts | 42° |
| 2026-04-30 13:00 | -25.75895 | -46.00591 | 7018 ft | 170 kts | 42° |
| 2026-04-30 13:00 | -25.75075 | -45.99646 | 7019 ft | 170 kts | 42° |
| 2026-04-30 13:00 | -25.74251 | -45.98699 | 7018 ft | 171 kts | 42° |
| 2026-04-30 13:00 | -25.73425 | -45.97750 | 7019 ft | 171 kts | 42° |
| 2026-04-30 13:01 | -25.72601 | -45.96799 | 7016 ft | 172 kts | 42° |
| 2026-04-30 13:01 | -25.71773 | -45.95841 | 7016 ft | 172 kts | 42° |
| 2026-04-30 13:01 | -25.71220 | -45.95205 | 7016 ft | 172 kts | 42° |
| 2026-04-30 13:01 | -25.70388 | -45.94250 | 7016 ft | 172 kts | 42° |
| 2026-04-30 13:02 | -25.69558 | -45.93294 | 7015 ft | 172 kts | 42° |
| 2026-04-30 13:02 | -25.68728 | -45.92340 | 7015 ft | 172 kts | 41° |
| 2026-04-30 13:02 | -25.67897 | -45.91385 | 7015 ft | 172 kts | 41° |
| 2026-04-30 13:02 | -25.66798 | -45.90124 | 7015 ft | 172 kts | 41° |
| 2026-04-30 13:03 | -25.66236 | -45.89481 | 7016 ft | 172 kts | 41° |
| 2026-04-30 13:03 | -25.65323 | -45.88629 | 7017 ft | 171 kts | 29° |
| 2026-04-30 13:03 | -25.64347 | -45.87891 | 7014 ft | 170 kts | 30° |
| 2026-04-30 13:03 | -25.63382 | -45.87137 | 7015 ft | 170 kts | 30° |
| 2026-04-30 13:04 | -25.62419 | -45.86380 | 7014 ft | 169 kts | 30° |
| 2026-04-30 13:04 | -25.61459 | -45.85627 | 7015 ft | 169 kts | 30° |
| 2026-04-30 13:04 | -25.60497 | -45.84877 | 7015 ft | 169 kts | 30° |
| 2026-04-30 13:04 | -25.59531 | -45.84128 | 7015 ft | 169 kts | 30° |
| 2026-04-30 13:05 | -25.58566 | -45.83380 | 7015 ft | 169 kts | 30° |
| 2026-04-30 13:05 | -25.57602 | -45.82632 | 7015 ft | 169 kts | 30° |
| 2026-04-30 13:05 | -25.56638 | -45.81883 | 7015 ft | 169 kts | 30° |
| 2026-04-30 13:06 | -25.54725 | -45.80395 | 7015 ft | 169 kts | 29° |
| 2026-04-30 13:06 | -25.53767 | -45.79653 | 7014 ft | 168 kts | 29° |
| 2026-04-30 13:06 | -25.52813 | -45.78909 | 7015 ft | 168 kts | 29° |
| 2026-04-30 13:06 | -25.51857 | -45.78165 | 7015 ft | 168 kts | 29° |
| 2026-04-30 13:07 | -25.50900 | -45.77425 | 7012 ft | 168 kts | 29° |
| 2026-04-30 13:07 | -25.49945 | -45.76685 | 7014 ft | 167 kts | 29° |
| 2026-04-30 13:07 | -25.48990 | -45.75946 | 7015 ft | 167 kts | 29° |
| 2026-04-30 13:07 | -25.48035 | -45.75208 | 7015 ft | 168 kts | 29° |
| 2026-04-30 13:08 | -25.47078 | -45.74469 | 7013 ft | 168 kts | 28° |
| 2026-04-30 13:08 | -25.46120 | -45.73732 | 7015 ft | 168 kts | 29° |
| 2026-04-30 13:08 | -25.45163 | -45.72993 | 7015 ft | 168 kts | 29° |
| 2026-04-30 13:08 | -25.44208 | -45.72253 | 7015 ft | 167 kts | 29° |
| 2026-04-30 13:09 | -25.43255 | -45.71514 | 7013 ft | 168 kts | 29° |
| 2026-04-30 13:09 | -25.42299 | -45.70775 | 7012 ft | 168 kts | 29° |
| 2026-04-30 13:09 | -25.41342 | -45.70036 | 7012 ft | 167 kts | 29° |
| 2026-04-30 13:09 | -25.40387 | -45.69299 | 7012 ft | 167 kts | 29° |
| 2026-04-30 13:10 | -25.39434 | -45.68562 | 7017 ft | 167 kts | 29° |
| 2026-04-30 13:10 | -25.38493 | -45.67834 | 7015 ft | 168 kts | 29° |
| 2026-04-30 13:10 | -25.37537 | -45.67093 | 7016 ft | 167 kts | 29° |
| 2026-04-30 13:10 | -25.36579 | -45.66352 | 7015 ft | 167 kts | 29° |
| 2026-04-30 13:11 | -25.35624 | -45.65614 | 7012 ft | 167 kts | 29° |
| 2026-04-30 13:11 | -25.34670 | -45.64877 | 7012 ft | 167 kts | 29° |
| 2026-04-30 13:11 | -25.33716 | -45.64140 | 7012 ft | 167 kts | 29° |
| 2026-04-30 13:11 | -25.32763 | -45.63405 | 7012 ft | 167 kts | 29° |
| 2026-04-30 13:12 | -25.31809 | -45.62669 | 7014 ft | 167 kts | 29° |
| 2026-04-30 13:12 | -25.30856 | -45.61934 | 7015 ft | 167 kts | 29° |
| 2026-04-30 13:12 | -25.29903 | -45.61198 | 7015 ft | 167 kts | 29° |
| 2026-04-30 13:13 | -25.27996 | -45.59725 | 7014 ft | 167 kts | 29° |
| 2026-04-30 13:13 | -25.27039 | -45.58990 | 7013 ft | 167 kts | 29° |
| 2026-04-30 13:13 | -25.25128 | -45.57518 | 7011 ft | 167 kts | 29° |
| 2026-04-30 13:14 | -25.24173 | -45.56779 | 7014 ft | 168 kts | 29° |
| 2026-04-30 13:14 | -25.23218 | -45.56040 | 7015 ft | 167 kts | 29° |
| 2026-04-30 13:14 | -25.21324 | -45.54581 | 7015 ft | 167 kts | 28° |
| 2026-04-30 13:15 | -25.20371 | -45.53848 | 7012 ft | 167 kts | 28° |
| 2026-04-30 13:15 | -25.18462 | -45.52380 | 7012 ft | 167 kts | 29° |
| 2026-04-30 13:15 | -25.17508 | -45.51644 | 7012 ft | 168 kts | 29° |
| 2026-04-30 13:16 | -25.16550 | -45.50907 | 7012 ft | 168 kts | 29° |
| 2026-04-30 13:16 | -25.15593 | -45.50171 | 7013 ft | 167 kts | 29° |
| 2026-04-30 13:16 | -25.14638 | -45.49437 | 7013 ft | 167 kts | 29° |
| 2026-04-30 13:17 | -25.12725 | -45.47965 | 7014 ft | 168 kts | 29° |
| 2026-04-30 13:17 | -25.11766 | -45.47228 | 7013 ft | 168 kts | 29° |
| 2026-04-30 13:17 | -25.09864 | -45.45765 | 7012 ft | 167 kts | 28° |
| 2026-04-30 13:18 | -25.08911 | -45.45032 | 7011 ft | 167 kts | 28° |
| 2026-04-30 13:18 | -25.07002 | -45.43566 | 7013 ft | 167 kts | 28° |
| 2026-04-30 13:18 | -25.06043 | -45.42831 | 7012 ft | 168 kts | 28° |
| 2026-04-30 13:19 | -25.05088 | -45.42097 | 7012 ft | 167 kts | 29° |
| 2026-04-30 13:19 | -25.04132 | -45.41364 | 7012 ft | 167 kts | 29° |
| 2026-04-30 13:19 | -25.03177 | -45.40630 | 7013 ft | 167 kts | 29° |
| 2026-04-30 13:19 | -25.02220 | -45.39895 | 7013 ft | 167 kts | 28° |
| 2026-04-30 13:20 | -25.01264 | -45.39163 | 7012 ft | 167 kts | 29° |
| 2026-04-30 13:20 | -25.00309 | -45.38429 | 7007 ft | 167 kts | 28° |
| 2026-04-30 13:20 | -24.99351 | -45.37694 | 7009 ft | 168 kts | 28° |
| 2026-04-30 13:20 | -24.98390 | -45.36958 | 7009 ft | 168 kts | 28° |
| 2026-04-30 13:21 | -24.97430 | -45.36221 | 7013 ft | 168 kts | 28° |
| 2026-04-30 13:21 | -24.96483 | -45.35495 | 7012 ft | 168 kts | 28° |
| 2026-04-30 13:21 | -24.95524 | -45.34760 | 7013 ft | 168 kts | 28° |
| 2026-04-30 13:22 | -24.93601 | -45.33288 | 7009 ft | 168 kts | 28° |
| 2026-04-30 13:22 | -24.92640 | -45.32553 | 7010 ft | 168 kts | 28° |
| 2026-04-30 13:22 | -24.90717 | -45.31090 | 7011 ft | 168 kts | 29° |
| 2026-04-30 13:23 | -24.89755 | -45.30358 | 7010 ft | 168 kts | 29° |
| 2026-04-30 13:23 | -24.87835 | -45.28885 | 7010 ft | 168 kts | 30° |
| 2026-04-30 13:24 | -24.85919 | -45.27414 | 7012 ft | 168 kts | 30° |
| 2026-04-30 13:24 | -24.85284 | -45.26924 | 7012 ft | 168 kts | 30° |